sensor_id;sensor_type;location;lat;lon;timestamp;P1;durP1;ratioP1;P2;durP2;ratioP2
46889;SDS011;32625;51.080;16.970;2022-09-02T00:00:29;3.25;;;2.08;;
46889;SDS011;32625;51.080;16.970;2022-09-02T00:03:33;5.50;;;2.25;;
46889;SDS011;32625;51.080;16.970;2022-09-02T00:07:28;7.88;;;2.95;;
46889;SDS011;32625;51.080;16.970;2022-09-02T00:10:42;5.10;;;3.00;;
46889;SDS011;32625;51.080;16.970;2022-09-02T00:14:04;7.45;;;2.53;;
46889;SDS011;32625;51.080;16.970;2022-09-02T00:17:38;7.78;;;2.83;;
46889;SDS011;32625;51.080;16.970;2022-09-02T00:20:56;6.43;;;2.50;;
46889;SDS011;32625;51.080;16.970;2022-09-02T00:24:34;7.25;;;2.67;;
46889;SDS011;32625;51.080;16.970;2022-09-02T00:31:17;9.70;;;2.80;;
46889;SDS011;32625;51.080;16.970;2022-09-02T00:34:35;4.40;;;2.65;;
46889;SDS011;32625;51.080;16.970;2022-09-02T00:37:46;6.18;;;2.80;;
46889;SDS011;32625;51.080;16.970;2022-09-02T00:40:42;3.08;;;2.33;;
46889;SDS011;32625;51.080;16.970;2022-09-02T00:46:52;6.97;;;2.60;;
46889;SDS011;32625;51.080;16.970;2022-09-02T00:49:59;4.88;;;2.78;;
46889;SDS011;32625;51.080;16.970;2022-09-02T00:53:09;4.15;;;3.05;;
46889;SDS011;32625;51.080;16.970;2022-09-02T01:00:28;8.38;;;3.05;;
46889;SDS011;32625;51.080;16.970;2022-09-02T01:03:51;5.50;;;3.28;;
46889;SDS011;32625;51.080;16.970;2022-09-02T01:07:24;6.70;;;3.47;;
46889;SDS011;32625;51.080;16.970;2022-09-02T01:10:41;7.85;;;3.17;;
46889;SDS011;32625;51.080;16.970;2022-09-02T01:13:14;6.35;;;3.53;;
46889;SDS011;32625;51.080;16.970;2022-09-02T01:15:47;5.75;;;3.60;;
46889;SDS011;32625;51.080;16.970;2022-09-02T01:18:19;6.68;;;3.35;;
46889;SDS011;32625;51.080;16.970;2022-09-02T01:20:50;6.18;;;3.13;;
46889;SDS011;32625;51.080;16.970;2022-09-02T01:23:18;10.65;;;3.50;;
46889;SDS011;32625;51.080;16.970;2022-09-02T01:25:47;6.30;;;3.38;;
46889;SDS011;32625;51.080;16.970;2022-09-02T01:28:16;5.53;;;3.47;;
46889;SDS011;32625;51.080;16.970;2022-09-02T01:30:47;6.25;;;3.42;;
46889;SDS011;32625;51.080;16.970;2022-09-02T01:33:20;7.30;;;3.67;;
46889;SDS011;32625;51.080;16.970;2022-09-02T01:35:51;6.65;;;3.05;;
46889;SDS011;32625;51.080;16.970;2022-09-02T01:38:19;7.78;;;3.63;;
46889;SDS011;32625;51.080;16.970;2022-09-02T01:40:47;9.57;;;3.72;;
46889;SDS011;32625;51.080;16.970;2022-09-02T01:43:16;6.53;;;3.72;;
46889;SDS011;32625;51.080;16.970;2022-09-02T01:45:48;7.88;;;3.80;;
46889;SDS011;32625;51.080;16.970;2022-09-02T01:48:17;5.93;;;3.08;;
46889;SDS011;32625;51.080;16.970;2022-09-02T01:50:51;5.38;;;3.05;;
46889;SDS011;32625;51.080;16.970;2022-09-02T01:53:24;10.00;;;3.33;;
46889;SDS011;32625;51.080;16.970;2022-09-02T01:55:53;7.15;;;3.83;;
46889;SDS011;32625;51.080;16.970;2022-09-02T01:58:22;7.63;;;3.72;;
46889;SDS011;32625;51.080;16.970;2022-09-02T02:00:50;5.35;;;4.10;;
46889;SDS011;32625;51.080;16.970;2022-09-02T02:03:18;6.65;;;4.10;;
46889;SDS011;32625;51.080;16.970;2022-09-02T02:05:47;7.55;;;3.67;;
46889;SDS011;32625;51.080;16.970;2022-09-02T02:08:17;8.70;;;3.92;;
46889;SDS011;32625;51.080;16.970;2022-09-02T02:10:45;5.28;;;3.70;;
46889;SDS011;32625;51.080;16.970;2022-09-02T02:13:13;7.10;;;4.53;;
46889;SDS011;32625;51.080;16.970;2022-09-02T02:15:42;5.78;;;3.58;;
46889;SDS011;32625;51.080;16.970;2022-09-02T02:18:10;6.05;;;4.80;;
46889;SDS011;32625;51.080;16.970;2022-09-02T02:20:37;5.82;;;3.60;;
46889;SDS011;32625;51.080;16.970;2022-09-02T02:23:08;6.38;;;3.88;;
46889;SDS011;32625;51.080;16.970;2022-09-02T02:25:37;6.57;;;3.63;;
46889;SDS011;32625;51.080;16.970;2022-09-02T02:28:05;8.73;;;4.32;;
46889;SDS011;32625;51.080;16.970;2022-09-02T02:30:33;6.32;;;3.72;;
46889;SDS011;32625;51.080;16.970;2022-09-02T02:33:01;9.15;;;3.75;;
46889;SDS011;32625;51.080;16.970;2022-09-02T02:35:30;7.25;;;2.95;;
46889;SDS011;32625;51.080;16.970;2022-09-02T02:37:57;10.13;;;3.72;;
46889;SDS011;32625;51.080;16.970;2022-09-02T02:40:29;8.70;;;3.75;;
46889;SDS011;32625;51.080;16.970;2022-09-02T02:42:58;5.88;;;3.55;;
46889;SDS011;32625;51.080;16.970;2022-09-02T02:45:25;4.63;;;3.45;;
46889;SDS011;32625;51.080;16.970;2022-09-02T02:47:53;4.90;;;3.33;;
46889;SDS011;32625;51.080;16.970;2022-09-02T02:50:22;4.93;;;3.80;;
46889;SDS011;32625;51.080;16.970;2022-09-02T02:52:50;8.10;;;3.90;;
46889;SDS011;32625;51.080;16.970;2022-09-02T02:55:21;6.93;;;3.85;;
46889;SDS011;32625;51.080;16.970;2022-09-02T02:57:49;5.85;;;3.60;;
46889;SDS011;32625;51.080;16.970;2022-09-02T03:00:19;6.40;;;3.42;;
46889;SDS011;32625;51.080;16.970;2022-09-02T03:02:58;5.65;;;3.50;;
46889;SDS011;32625;51.080;16.970;2022-09-02T03:05:29;6.13;;;3.20;;
46889;SDS011;32625;51.080;16.970;2022-09-02T03:07:58;7.82;;;3.80;;
46889;SDS011;32625;51.080;16.970;2022-09-02T03:10:25;9.25;;;3.25;;
46889;SDS011;32625;51.080;16.970;2022-09-02T03:12:52;7.82;;;3.92;;
46889;SDS011;32625;51.080;16.970;2022-09-02T03:15:20;7.20;;;3.75;;
46889;SDS011;32625;51.080;16.970;2022-09-02T03:17:51;9.52;;;3.72;;
46889;SDS011;32625;51.080;16.970;2022-09-02T03:20:21;9.40;;;3.75;;
46889;SDS011;32625;51.080;16.970;2022-09-02T03:22:54;7.78;;;3.83;;
46889;SDS011;32625;51.080;16.970;2022-09-02T03:25:24;4.07;;;3.40;;
46889;SDS011;32625;51.080;16.970;2022-09-02T03:28:03;5.80;;;3.40;;
46889;SDS011;32625;51.080;16.970;2022-09-02T03:30:33;5.13;;;3.33;;
46889;SDS011;32625;51.080;16.970;2022-09-02T03:33:01;9.02;;;3.25;;
46889;SDS011;32625;51.080;16.970;2022-09-02T03:35:32;5.28;;;3.75;;
46889;SDS011;32625;51.080;16.970;2022-09-02T03:38:03;5.68;;;3.47;;
46889;SDS011;32625;51.080;16.970;2022-09-02T03:40:31;5.38;;;3.50;;
46889;SDS011;32625;51.080;16.970;2022-09-02T03:43:00;5.00;;;3.40;;
46889;SDS011;32625;51.080;16.970;2022-09-02T03:45:29;5.20;;;3.50;;
46889;SDS011;32625;51.080;16.970;2022-09-02T03:48:02;7.00;;;3.72;;
46889;SDS011;32625;51.080;16.970;2022-09-02T03:50:36;6.43;;;3.80;;
46889;SDS011;32625;51.080;16.970;2022-09-02T03:53:09;6.75;;;4.15;;
46889;SDS011;32625;51.080;16.970;2022-09-02T03:55:47;5.93;;;3.67;;
46889;SDS011;32625;51.080;16.970;2022-09-02T03:58:17;5.75;;;3.67;;
46889;SDS011;32625;51.080;16.970;2022-09-02T04:00:51;7.00;;;3.75;;
46889;SDS011;32625;51.080;16.970;2022-09-02T04:05:49;5.30;;;3.53;;
46889;SDS011;32625;51.080;16.970;2022-09-02T04:08:20;7.90;;;4.28;;
46889;SDS011;32625;51.080;16.970;2022-09-02T04:10:49;7.32;;;3.40;;
46889;SDS011;32625;51.080;16.970;2022-09-02T04:13:17;5.47;;;3.95;;
46889;SDS011;32625;51.080;16.970;2022-09-02T04:15:46;5.18;;;3.15;;
46889;SDS011;32625;51.080;16.970;2022-09-02T04:18:18;7.30;;;4.07;;
46889;SDS011;32625;51.080;16.970;2022-09-02T04:20:45;9.00;;;3.75;;
46889;SDS011;32625;51.080;16.970;2022-09-02T04:23:13;5.50;;;3.20;;
46889;SDS011;32625;51.080;16.970;2022-09-02T04:25:42;8.00;;;4.50;;
46889;SDS011;32625;51.080;16.970;2022-09-02T04:28:12;7.22;;;4.13;;
46889;SDS011;32625;51.080;16.970;2022-09-02T04:30:40;7.65;;;3.78;;
46889;SDS011;32625;51.080;16.970;2022-09-02T04:33:10;8.60;;;4.00;;
46889;SDS011;32625;51.080;16.970;2022-09-02T04:35:43;7.32;;;3.55;;
46889;SDS011;32625;51.080;16.970;2022-09-02T04:38:14;7.45;;;3.85;;
46889;SDS011;32625;51.080;16.970;2022-09-02T04:40:43;9.48;;;4.45;;
46889;SDS011;32625;51.080;16.970;2022-09-02T04:43:12;7.97;;;4.43;;
46889;SDS011;32625;51.080;16.970;2022-09-02T04:45:41;5.63;;;3.50;;
46889;SDS011;32625;51.080;16.970;2022-09-02T04:48:14;7.82;;;3.65;;
46889;SDS011;32625;51.080;16.970;2022-09-02T04:50:43;12.05;;;4.20;;
46889;SDS011;32625;51.080;16.970;2022-09-02T04:53:13;9.77;;;4.07;;
46889;SDS011;32625;51.080;16.970;2022-09-02T04:55:42;5.13;;;4.10;;
46889;SDS011;32625;51.080;16.970;2022-09-02T04:58:12;5.75;;;3.55;;
46889;SDS011;32625;51.080;16.970;2022-09-02T05:00:41;7.10;;;3.80;;
46889;SDS011;32625;51.080;16.970;2022-09-02T05:03:10;8.00;;;3.97;;
46889;SDS011;32625;51.080;16.970;2022-09-02T05:05:41;7.72;;;4.38;;
46889;SDS011;32625;51.080;16.970;2022-09-02T05:08:10;6.43;;;3.90;;
46889;SDS011;32625;51.080;16.970;2022-09-02T05:10:40;12.35;;;4.63;;
46889;SDS011;32625;51.080;16.970;2022-09-02T05:13:08;11.57;;;4.28;;
46889;SDS011;32625;51.080;16.970;2022-09-02T05:15:39;4.22;;;3.45;;
46889;SDS011;32625;51.080;16.970;2022-09-02T05:18:08;4.78;;;3.47;;
46889;SDS011;32625;51.080;16.970;2022-09-02T05:20:38;10.18;;;4.13;;
46889;SDS011;32625;51.080;16.970;2022-09-02T05:23:06;10.73;;;4.32;;
46889;SDS011;32625;51.080;16.970;2022-09-02T05:25:35;6.65;;;3.63;;
46889;SDS011;32625;51.080;16.970;2022-09-02T05:28:03;7.40;;;4.75;;
46889;SDS011;32625;51.080;16.970;2022-09-02T05:30:35;7.93;;;3.90;;
46889;SDS011;32625;51.080;16.970;2022-09-02T05:33:08;6.80;;;4.28;;
46889;SDS011;32625;51.080;16.970;2022-09-02T05:35:42;7.27;;;3.70;;
46889;SDS011;32625;51.080;16.970;2022-09-02T05:38:14;6.30;;;4.18;;
46889;SDS011;32625;51.080;16.970;2022-09-02T05:40:45;10.80;;;4.13;;
46889;SDS011;32625;51.080;16.970;2022-09-02T05:43:12;10.65;;;4.10;;
46889;SDS011;32625;51.080;16.970;2022-09-02T05:45:39;10.98;;;3.78;;
46889;SDS011;32625;51.080;16.970;2022-09-02T05:48:06;11.80;;;4.10;;
46889;SDS011;32625;51.080;16.970;2022-09-02T05:50:55;9.68;;;3.78;;
46889;SDS011;32625;51.080;16.970;2022-09-02T05:53:24;7.65;;;3.85;;
46889;SDS011;32625;51.080;16.970;2022-09-02T05:55:53;8.32;;;4.10;;
46889;SDS011;32625;51.080;16.970;2022-09-02T05:58:21;8.00;;;4.22;;
46889;SDS011;32625;51.080;16.970;2022-09-02T06:00:51;8.52;;;4.05;;
46889;SDS011;32625;51.080;16.970;2022-09-02T06:03:20;9.15;;;3.72;;
46889;SDS011;32625;51.080;16.970;2022-09-02T06:05:55;6.90;;;4.05;;
46889;SDS011;32625;51.080;16.970;2022-09-02T06:08:30;10.20;;;3.83;;
46889;SDS011;32625;51.080;16.970;2022-09-02T06:11:00;8.57;;;4.20;;
46889;SDS011;32625;51.080;16.970;2022-09-02T06:13:30;6.05;;;4.18;;
46889;SDS011;32625;51.080;16.970;2022-09-02T06:16:02;8.60;;;4.63;;
46889;SDS011;32625;51.080;16.970;2022-09-02T06:18:30;9.88;;;4.07;;
46889;SDS011;32625;51.080;16.970;2022-09-02T06:20:58;9.30;;;4.35;;
46889;SDS011;32625;51.080;16.970;2022-09-02T06:23:30;11.07;;;4.60;;
46889;SDS011;32625;51.080;16.970;2022-09-02T06:26:01;8.27;;;4.82;;
46889;SDS011;32625;51.080;16.970;2022-09-02T06:28:28;14.07;;;4.38;;
46889;SDS011;32625;51.080;16.970;2022-09-02T06:30:57;9.68;;;4.85;;
46889;SDS011;32625;51.080;16.970;2022-09-02T06:33:25;8.95;;;5.18;;
46889;SDS011;32625;51.080;16.970;2022-09-02T06:35:52;16.60;;;5.30;;
46889;SDS011;32625;51.080;16.970;2022-09-02T06:38:20;11.73;;;4.90;;
46889;SDS011;32625;51.080;16.970;2022-09-02T06:40:48;12.63;;;4.20;;
46889;SDS011;32625;51.080;16.970;2022-09-02T06:43:24;15.63;;;4.97;;
46889;SDS011;32625;51.080;16.970;2022-09-02T06:46:05;9.80;;;5.20;;
46889;SDS011;32625;51.080;16.970;2022-09-02T06:48:35;11.85;;;4.35;;
46889;SDS011;32625;51.080;16.970;2022-09-02T06:51:04;7.85;;;3.20;;
46889;SDS011;32625;51.080;16.970;2022-09-02T06:53:32;6.68;;;2.65;;
46889;SDS011;32625;51.080;16.970;2022-09-02T06:55:59;4.30;;;2.92;;
46889;SDS011;32625;51.080;16.970;2022-09-02T06:58:28;7.00;;;2.70;;
46889;SDS011;32625;51.080;16.970;2022-09-02T07:00:55;6.18;;;2.65;;
46889;SDS011;32625;51.080;16.970;2022-09-02T07:03:22;4.70;;;2.60;;
46889;SDS011;32625;51.080;16.970;2022-09-02T07:06:09;5.90;;;2.35;;
46889;SDS011;32625;51.080;16.970;2022-09-02T07:08:43;9.77;;;2.55;;
46889;SDS011;32625;51.080;16.970;2022-09-02T07:11:16;5.90;;;2.80;;
46889;SDS011;32625;51.080;16.970;2022-09-02T07:13:49;7.75;;;3.22;;
46889;SDS011;32625;51.080;16.970;2022-09-02T07:16:20;6.63;;;2.70;;
46889;SDS011;32625;51.080;16.970;2022-09-02T07:18:55;7.15;;;2.72;;
46889;SDS011;32625;51.080;16.970;2022-09-02T07:21:24;8.63;;;2.92;;
46889;SDS011;32625;51.080;16.970;2022-09-02T07:23:52;4.72;;;2.60;;
46889;SDS011;32625;51.080;16.970;2022-09-02T07:26:19;5.88;;;2.60;;
46889;SDS011;32625;51.080;16.970;2022-09-02T07:28:49;7.78;;;2.75;;
46889;SDS011;32625;51.080;16.970;2022-09-02T07:31:17;6.35;;;3.08;;
46889;SDS011;32625;51.080;16.970;2022-09-02T07:33:45;8.40;;;2.88;;
46889;SDS011;32625;51.080;16.970;2022-09-02T07:36:16;5.40;;;2.60;;
46889;SDS011;32625;51.080;16.970;2022-09-02T07:38:47;8.30;;;2.55;;
46889;SDS011;32625;51.080;16.970;2022-09-02T07:41:15;4.47;;;2.67;;
46889;SDS011;32625;51.080;16.970;2022-09-02T07:43:42;5.68;;;2.33;;
46889;SDS011;32625;51.080;16.970;2022-09-02T07:46:16;3.90;;;2.25;;
46889;SDS011;32625;51.080;16.970;2022-09-02T07:48:46;5.10;;;2.20;;
46889;SDS011;32625;51.080;16.970;2022-09-02T07:51:18;3.38;;;1.90;;
46889;SDS011;32625;51.080;16.970;2022-09-02T07:53:47;7.57;;;1.88;;
46889;SDS011;32625;51.080;16.970;2022-09-02T07:56:15;10.40;;;2.38;;
46889;SDS011;32625;51.080;16.970;2022-09-02T07:58:44;2.28;;;1.90;;
46889;SDS011;32625;51.080;16.970;2022-09-02T08:01:12;3.30;;;1.92;;
46889;SDS011;32625;51.080;16.970;2022-09-02T08:03:42;4.93;;;1.90;;
46889;SDS011;32625;51.080;16.970;2022-09-02T08:06:12;6.03;;;2.70;;
46889;SDS011;32625;51.080;16.970;2022-09-02T08:08:40;5.57;;;2.35;;
46889;SDS011;32625;51.080;16.970;2022-09-02T08:11:08;6.38;;;2.33;;
46889;SDS011;32625;51.080;16.970;2022-09-02T08:13:36;5.70;;;2.65;;
46889;SDS011;32625;51.080;16.970;2022-09-02T08:16:04;3.60;;;2.22;;
46889;SDS011;32625;51.080;16.970;2022-09-02T08:18:31;7.97;;;2.35;;
46889;SDS011;32625;51.080;16.970;2022-09-02T08:20:59;4.47;;;2.28;;
46889;SDS011;32625;51.080;16.970;2022-09-02T08:23:27;4.93;;;2.20;;
46889;SDS011;32625;51.080;16.970;2022-09-02T08:26:03;11.25;;;3.55;;
46889;SDS011;32625;51.080;16.970;2022-09-02T08:28:31;3.58;;;1.90;;
46889;SDS011;32625;51.080;16.970;2022-09-02T08:30:58;3.38;;;1.80;;
46889;SDS011;32625;51.080;16.970;2022-09-02T08:33:29;5.68;;;1.70;;
46889;SDS011;32625;51.080;16.970;2022-09-02T08:36:00;8.60;;;1.95;;
46889;SDS011;32625;51.080;16.970;2022-09-02T08:38:36;2.10;;;1.65;;
46889;SDS011;32625;51.080;16.970;2022-09-02T08:41:10;3.50;;;1.90;;
46889;SDS011;32625;51.080;16.970;2022-09-02T08:43:54;7.25;;;2.15;;
46889;SDS011;32625;51.080;16.970;2022-09-02T08:46:27;2.95;;;1.70;;
46889;SDS011;32625;51.080;16.970;2022-09-02T08:49:42;5.05;;;1.40;;
46889;SDS011;32625;51.080;16.970;2022-09-02T08:51:57;2.85;;;1.40;;
46889;SDS011;32625;51.080;16.970;2022-09-02T08:57:05;5.18;;;1.60;;
46889;SDS011;32625;51.080;16.970;2022-09-02T08:59:34;2.97;;;1.58;;
46889;SDS011;32625;51.080;16.970;2022-09-02T09:07:47;4.00;;;1.15;;
46889;SDS011;32625;51.080;16.970;2022-09-02T09:18:04;5.03;;;2.53;;
46889;SDS011;32625;51.080;16.970;2022-09-02T09:20:36;1.50;;;1.13;;
46889;SDS011;32625;51.080;16.970;2022-09-02T09:23:26;3.17;;;1.40;;
46889;SDS011;32625;51.080;16.970;2022-09-02T09:28:54;3.67;;;1.27;;
46889;SDS011;32625;51.080;16.970;2022-09-02T09:31:28;3.25;;;1.23;;
46889;SDS011;32625;51.080;16.970;2022-09-02T09:34:01;1.20;;;1.10;;
46889;SDS011;32625;51.080;16.970;2022-09-02T09:39:15;1.90;;;1.50;;
46889;SDS011;32625;51.080;16.970;2022-09-02T09:41:45;5.25;;;2.15;;
46889;SDS011;32625;51.080;16.970;2022-09-02T09:44:59;2.75;;;1.52;;
46889;SDS011;32625;51.080;16.970;2022-09-02T09:47:17;1.75;;;1.45;;
46889;SDS011;32625;51.080;16.970;2022-09-02T09:49:49;2.58;;;1.20;;
46889;SDS011;32625;51.080;16.970;2022-09-02T09:52:37;2.08;;;1.20;;
46889;SDS011;32625;51.080;16.970;2022-09-02T09:55:12;4.32;;;1.63;;
46889;SDS011;32625;51.080;16.970;2022-09-02T09:57:42;3.42;;;1.33;;
46889;SDS011;32625;51.080;16.970;2022-09-02T10:00:24;15.60;;;1.90;;
46889;SDS011;32625;51.080;16.970;2022-09-02T10:02:55;2.60;;;1.60;;
46889;SDS011;32625;51.080;16.970;2022-09-02T10:05:27;5.07;;;1.90;;
46889;SDS011;32625;51.080;16.970;2022-09-02T10:07:58;8.57;;;1.30;;
46889;SDS011;32625;51.080;16.970;2022-09-02T10:10:29;6.60;;;1.48;;
46889;SDS011;32625;51.080;16.970;2022-09-02T10:13:14;5.10;;;1.48;;
46889;SDS011;32625;51.080;16.970;2022-09-02T10:18:54;1.90;;;1.20;;
46889;SDS011;32625;51.080;16.970;2022-09-02T10:21:52;2.25;;;1.30;;
46889;SDS011;32625;51.080;16.970;2022-09-02T10:27:21;2.47;;;1.20;;
46889;SDS011;32625;51.080;16.970;2022-09-02T10:30:17;3.25;;;1.20;;
46889;SDS011;32625;51.080;16.970;2022-09-02T10:35:42;7.32;;;1.58;;
46889;SDS011;32625;51.080;16.970;2022-09-02T10:38:21;1.60;;;1.38;;
46889;SDS011;32625;51.080;16.970;2022-09-02T10:48:55;2.47;;;1.30;;
46889;SDS011;32625;51.080;16.970;2022-09-02T10:59:34;3.38;;;1.55;;
46889;SDS011;32625;51.080;16.970;2022-09-02T11:05:00;5.53;;;1.35;;
46889;SDS011;32625;51.080;16.970;2022-09-02T11:07:53;1.80;;;1.20;;
46889;SDS011;32625;51.080;16.970;2022-09-02T11:10:25;2.03;;;1.50;;
46889;SDS011;32625;51.080;16.970;2022-09-02T11:13:01;2.25;;;1.40;;
46889;SDS011;32625;51.080;16.970;2022-09-02T11:15:43;1.95;;;1.40;;
46889;SDS011;32625;51.080;16.970;2022-09-02T11:18:17;1.88;;;1.10;;
46889;SDS011;32625;51.080;16.970;2022-09-02T11:23:56;3.80;;;1.48;;
46889;SDS011;32625;51.080;16.970;2022-09-02T11:26:27;3.83;;;1.33;;
46889;SDS011;32625;51.080;16.970;2022-09-02T11:29:18;4.60;;;1.20;;
46889;SDS011;32625;51.080;16.970;2022-09-02T11:31:56;2.13;;;1.13;;
46889;SDS011;32625;51.080;16.970;2022-09-02T11:37:02;2.47;;;1.10;;
46889;SDS011;32625;51.080;16.970;2022-09-02T11:39:41;1.90;;;1.20;;
46889;SDS011;32625;51.080;16.970;2022-09-02T11:48:18;3.40;;;1.40;;
46889;SDS011;32625;51.080;16.970;2022-09-02T11:53:41;4.75;;;1.42;;
46889;SDS011;32625;51.080;16.970;2022-09-02T11:56:18;4.03;;;1.50;;
46889;SDS011;32625;51.080;16.970;2022-09-02T11:58:50;2.75;;;1.40;;
46889;SDS011;32625;51.080;16.970;2022-09-02T12:04:19;3.42;;;1.90;;
46889;SDS011;32625;51.080;16.970;2022-09-02T12:09:45;3.05;;;1.30;;
46889;SDS011;32625;51.080;16.970;2022-09-02T12:20:10;1.60;;;1.10;;
46889;SDS011;32625;51.080;16.970;2022-09-02T12:22:56;1.55;;;1.10;;
46889;SDS011;32625;51.080;16.970;2022-09-02T12:33:41;3.45;;;1.35;;
46889;SDS011;32625;51.080;16.970;2022-09-02T12:50:10;3.22;;;1.40;;
46889;SDS011;32625;51.080;16.970;2022-09-02T12:55:59;3.40;;;1.40;;
46889;SDS011;32625;51.080;16.970;2022-09-02T12:58:33;1.83;;;1.27;;
46889;SDS011;32625;51.080;16.970;2022-09-02T13:01:28;2.92;;;1.05;;
46889;SDS011;32625;51.080;16.970;2022-09-02T13:15:22;2.37;;;1.37;;
46889;SDS011;32625;51.080;16.970;2022-09-02T13:34:50;2.37;;;1.40;;
46889;SDS011;32625;51.080;16.970;2022-09-02T13:37:31;1.95;;;1.33;;
46889;SDS011;32625;51.080;16.970;2022-09-02T13:40:05;1.90;;;1.40;;
46889;SDS011;32625;51.080;16.970;2022-09-02T13:42:50;2.42;;;1.33;;
46889;SDS011;32625;51.080;16.970;2022-09-02T13:45:21;2.53;;;1.40;;
46889;SDS011;32625;51.080;16.970;2022-09-02T13:47:53;1.50;;;1.40;;
46889;SDS011;32625;51.080;16.970;2022-09-02T13:50:24;3.60;;;2.00;;
46889;SDS011;32625;51.080;16.970;2022-09-02T13:52:56;2.38;;;1.30;;
46889;SDS011;32625;51.080;16.970;2022-09-02T13:55:50;3.58;;;1.48;;
46889;SDS011;32625;51.080;16.970;2022-09-02T13:58:29;1.45;;;1.10;;
46889;SDS011;32625;51.080;16.970;2022-09-02T14:01:20;4.97;;;1.20;;
46889;SDS011;32625;51.080;16.970;2022-09-02T14:03:48;1.58;;;1.20;;
46889;SDS011;32625;51.080;16.970;2022-09-02T14:06:19;3.30;;;1.33;;
46889;SDS011;32625;51.080;16.970;2022-09-02T14:08:53;6.97;;;1.70;;
46889;SDS011;32625;51.080;16.970;2022-09-02T14:11:24;2.75;;;1.88;;
46889;SDS011;32625;51.080;16.970;2022-09-02T14:13:53;4.30;;;1.60;;
46889;SDS011;32625;51.080;16.970;2022-09-02T14:16:32;2.15;;;1.02;;
46889;SDS011;32625;51.080;16.970;2022-09-02T14:19:07;3.47;;;1.48;;
46889;SDS011;32625;51.080;16.970;2022-09-02T14:24:28;4.68;;;1.50;;
46889;SDS011;32625;51.080;16.970;2022-09-02T14:27:09;2.45;;;1.50;;
46889;SDS011;32625;51.080;16.970;2022-09-02T14:29:45;7.90;;;1.60;;
46889;SDS011;32625;51.080;16.970;2022-09-02T14:32:22;4.32;;;1.20;;
46889;SDS011;32625;51.080;16.970;2022-09-02T14:35:08;2.15;;;1.38;;
46889;SDS011;32625;51.080;16.970;2022-09-02T14:37:53;2.50;;;1.23;;
46889;SDS011;32625;51.080;16.970;2022-09-02T14:40:37;3.20;;;1.40;;
46889;SDS011;32625;51.080;16.970;2022-09-02T14:43:13;4.55;;;1.10;;
46889;SDS011;32625;51.080;16.970;2022-09-02T14:45:46;2.97;;;1.65;;
46889;SDS011;32625;51.080;16.970;2022-09-02T14:48:17;1.73;;;1.03;;
46889;SDS011;32625;51.080;16.970;2022-09-02T14:50:59;1.27;;;1.17;;
46889;SDS011;32625;51.080;16.970;2022-09-02T14:53:30;3.72;;;1.40;;
46889;SDS011;32625;51.080;16.970;2022-09-02T14:55:59;2.13;;;1.20;;
46889;SDS011;32625;51.080;16.970;2022-09-02T14:58:27;2.40;;;1.50;;
46889;SDS011;32625;51.080;16.970;2022-09-02T15:00:55;4.68;;;1.58;;
46889;SDS011;32625;51.080;16.970;2022-09-02T15:03:28;3.40;;;1.35;;
46889;SDS011;32625;51.080;16.970;2022-09-02T15:05:56;2.67;;;1.30;;
46889;SDS011;32625;51.080;16.970;2022-09-02T15:08:24;3.83;;;1.20;;
46889;SDS011;32625;51.080;16.970;2022-09-02T15:10:51;2.03;;;1.20;;
46889;SDS011;32625;51.080;16.970;2022-09-02T15:13:38;3.58;;;1.40;;
46889;SDS011;32625;51.080;16.970;2022-09-02T15:16:05;1.60;;;1.30;;
46889;SDS011;32625;51.080;16.970;2022-09-02T15:18:32;2.28;;;1.10;;
46889;SDS011;32625;51.080;16.970;2022-09-02T15:20:59;2.15;;;1.20;;
46889;SDS011;32625;51.080;16.970;2022-09-02T15:23:26;2.45;;;1.48;;
46889;SDS011;32625;51.080;16.970;2022-09-02T15:26:00;1.52;;;1.35;;
46889;SDS011;32625;51.080;16.970;2022-09-02T15:28:27;2.13;;;1.55;;
46889;SDS011;32625;51.080;16.970;2022-09-02T15:30:56;2.60;;;1.48;;
46889;SDS011;32625;51.080;16.970;2022-09-02T15:33:27;4.80;;;1.60;;
46889;SDS011;32625;51.080;16.970;2022-09-02T15:36:03;3.85;;;1.60;;
46889;SDS011;32625;51.080;16.970;2022-09-02T15:38:35;7.28;;;1.55;;
46889;SDS011;32625;51.080;16.970;2022-09-02T15:41:16;4.88;;;1.58;;
46889;SDS011;32625;51.080;16.970;2022-09-02T15:43:45;2.25;;;1.60;;
46889;SDS011;32625;51.080;16.970;2022-09-02T15:46:18;2.38;;;1.73;;
46889;SDS011;32625;51.080;16.970;2022-09-02T15:48:49;2.40;;;1.55;;
46889;SDS011;32625;51.080;16.970;2022-09-02T15:51:17;4.80;;;1.50;;
46889;SDS011;32625;51.080;16.970;2022-09-02T15:53:46;3.05;;;1.70;;
46889;SDS011;32625;51.080;16.970;2022-09-02T15:56:15;3.03;;;1.60;;
46889;SDS011;32625;51.080;16.970;2022-09-02T15:58:44;5.97;;;1.92;;
46889;SDS011;32625;51.080;16.970;2022-09-02T16:01:11;6.20;;;1.70;;
46889;SDS011;32625;51.080;16.970;2022-09-02T16:03:39;4.05;;;1.48;;
46889;SDS011;32625;51.080;16.970;2022-09-02T16:06:09;5.05;;;1.80;;
46889;SDS011;32625;51.080;16.970;2022-09-02T16:08:36;2.47;;;1.60;;
46889;SDS011;32625;51.080;16.970;2022-09-02T16:11:07;4.55;;;1.60;;
46889;SDS011;32625;51.080;16.970;2022-09-02T16:13:35;3.88;;;1.45;;
46889;SDS011;32625;51.080;16.970;2022-09-02T16:16:04;1.65;;;1.48;;
46889;SDS011;32625;51.080;16.970;2022-09-02T16:18:33;2.38;;;1.60;;
46889;SDS011;32625;51.080;16.970;2022-09-02T16:21:02;4.20;;;1.90;;
46889;SDS011;32625;51.080;16.970;2022-09-02T16:23:34;2.90;;;1.63;;
46889;SDS011;32625;51.080;16.970;2022-09-02T16:28:50;1.60;;;1.45;;
46889;SDS011;32625;51.080;16.970;2022-09-02T16:31:19;2.63;;;1.60;;
46889;SDS011;32625;51.080;16.970;2022-09-02T16:33:55;4.95;;;1.90;;
46889;SDS011;32625;51.080;16.970;2022-09-02T16:36:28;3.35;;;1.83;;
46889;SDS011;32625;51.080;16.970;2022-09-02T16:38:59;4.38;;;1.60;;
46889;SDS011;32625;51.080;16.970;2022-09-02T16:41:27;7.22;;;1.95;;
46889;SDS011;32625;51.080;16.970;2022-09-02T16:43:58;6.93;;;2.15;;
46889;SDS011;32625;51.080;16.970;2022-09-02T16:46:27;6.18;;;2.03;;
46889;SDS011;32625;51.080;16.970;2022-09-02T16:48:55;3.60;;;1.67;;
46889;SDS011;32625;51.080;16.970;2022-09-02T16:51:23;4.55;;;1.88;;
46889;SDS011;32625;51.080;16.970;2022-09-02T16:53:54;5.85;;;1.90;;
46889;SDS011;32625;51.080;16.970;2022-09-02T16:56:23;5.82;;;1.70;;
46889;SDS011;32625;51.080;16.970;2022-09-02T16:58:51;2.80;;;1.77;;
46889;SDS011;32625;51.080;16.970;2022-09-02T17:01:20;13.30;;;2.63;;
46889;SDS011;32625;51.080;16.970;2022-09-02T17:03:48;24.40;;;3.92;;
46889;SDS011;32625;51.080;16.970;2022-09-02T17:06:16;7.45;;;2.00;;
46889;SDS011;32625;51.080;16.970;2022-09-02T17:08:43;8.68;;;2.10;;
46889;SDS011;32625;51.080;16.970;2022-09-02T17:11:21;3.45;;;1.80;;
46889;SDS011;32625;51.080;16.970;2022-09-02T17:16:26;2.78;;;2.10;;
46889;SDS011;32625;51.080;16.970;2022-09-02T17:18:56;5.10;;;2.08;;
46889;SDS011;32625;51.080;16.970;2022-09-02T17:21:25;9.60;;;2.50;;
46889;SDS011;32625;51.080;16.970;2022-09-02T17:24:01;4.97;;;2.63;;
46889;SDS011;32625;51.080;16.970;2022-09-02T17:26:31;4.18;;;2.55;;
46889;SDS011;32625;51.080;16.970;2022-09-02T17:29:00;6.28;;;2.47;;
46889;SDS011;32625;51.080;16.970;2022-09-02T17:31:33;4.63;;;2.25;;
46889;SDS011;32625;51.080;16.970;2022-09-02T17:34:02;5.47;;;2.55;;
46889;SDS011;32625;51.080;16.970;2022-09-02T17:36:31;4.47;;;2.28;;
46889;SDS011;32625;51.080;16.970;2022-09-02T17:39:01;5.38;;;2.40;;
46889;SDS011;32625;51.080;16.970;2022-09-02T17:41:32;3.40;;;2.03;;
46889;SDS011;32625;51.080;16.970;2022-09-02T17:44:18;7.60;;;2.47;;
46889;SDS011;32625;51.080;16.970;2022-09-02T17:46:46;5.55;;;2.50;;